Time;durP1;ratioP1;P1;durP2;ratioP2;P2;SDS_P1;SDS_P2;PMS_P1;PMS_P2;Temp;Humidity;BMP_temperature;BMP_pressure;BME280_temperature;BME280_humidity;BME280_pressure;Samples;Min_cycle;Max_cycle;Signal;HPM_P1;HPM_P2
2022/04/19 00:01:35;;;;;;;0.60;0.10;;;12.20;99.90;;;;;;5033751;28;20455;-74
2022/04/19 00:04:05;;;;;;;0.60;0.10;;;12.20;99.90;;;;;;5033516;28;20487;-73
2022/04/19 00:06:34;;;;;;;0.60;0.10;;;12.20;99.90;;;;;;5043736;28;20445;-74
2022/04/19 00:09:02;;;;;;;0.60;0.10;;;12.20;99.90;;;;;;5047601;28;20888;-74
2022/04/19 00:11:30;;;;;;;0.60;0.20;;;12.10;99.90;;;;;;5040023;28;20439;-74
2022/04/19 00:13:58;;;;;;;0.60;0.10;;;12.00;99.90;;;;;;5035378;28;20563;-74
2022/04/19 00:16:26;;;;;;;0.70;0.27;;;12.00;99.90;;;;;;5035258;28;20450;-74
2022/04/19 00:18:54;;;;;;;0.60;0.10;;;12.00;99.90;;;;;;5035285;28;20453;-74
2022/04/19 00:21:23;;;;;;;0.60;0.10;;;11.90;99.90;;;;;;5034918;28;20791;-74
2022/04/19 00:23:51;;;;;;;0.60;0.10;;;11.80;99.90;;;;;;5034940;28;20464;-72
2022/04/19 00:26:19;;;;;;;0.60;0.10;;;11.80;99.90;;;;;;5033352;28;20923;-73
2022/04/19 00:28:46;;;;;;;0.60;0.20;;;11.70;99.90;;;;;;5034010;28;20459;-74
2022/04/19 00:31:14;;;;;;;0.60;0.20;;;11.60;99.90;;;;;;5036557;28;20481;-73
2022/04/19 00:33:44;;;;;;;0.60;0.10;;;11.60;99.90;;;;;;5039745;28;20863;-73
2022/04/19 00:36:13;;;;;;;0.60;0.10;;;11.50;99.90;;;;;;5036339;28;20479;-74
2022/04/19 00:38:42;;;;;;;0.60;0.10;;;11.40;99.90;;;;;;5035195;28;20462;-74
2022/04/19 00:41:12;;;;;;;0.60;0.10;;;11.40;99.90;;;;;;5035577;28;20483;-72
2022/04/19 00:43:40;;;;;;;0.90;0.37;;;11.30;99.90;;;;;;5036440;28;20558;-73
2022/04/19 00:46:08;;;;;;;0.60;0.10;;;11.20;99.90;;;;;;5034990;28;20510;-74
2022/04/19 00:48:36;;;;;;;0.60;0.20;;;11.20;99.90;;;;;;5035789;28;21018;-71
2022/04/19 00:51:04;;;;;;;0.60;0.10;;;11.10;99.90;;;;;;5035695;28;20483;-72
2022/04/19 00:53:34;;;;;;;0.60;0.10;;;11.10;99.90;;;;;;5042148;28;20477;-73
2022/04/19 00:56:04;;;;;;;0.60;0.10;;;11.00;99.90;;;;;;5055068;28;20529;-73
2022/04/19 00:58:32;;;;;;;0.70;0.50;;;11.00;99.90;;;;;;5056504;28;20451;-73
2022/04/19 01:01:01;;;;;;;0.60;0.10;;;10.90;99.90;;;;;;5055237;28;20443;-72
2022/04/19 01:03:29;;;;;;;0.60;0.10;;;10.80;99.90;;;;;;5054483;28;20910;-72
2022/04/19 01:05:56;;;;;;;0.60;0.10;;;10.70;99.90;;;;;;5054550;28;20452;-72
2022/04/19 01:08:25;;;;;;;0.60;0.10;;;11.30;99.90;;;;;;5037741;28;20483;-74
2022/04/19 01:13:17;;;;;;;0.60;0.10;;;10.60;99.90;;;;;;5034525;28;20514;-72
2022/04/19 01:13:42;;;;;;;0.60;0.10;;;10.60;99.90;;;;;;5033135;28;20472;-73
2022/04/19 01:16:10;;;;;;;0.60;0.10;;;10.60;99.90;;;;;;5032689;28;20747;-74
2022/04/19 01:18:40;;;;;;;0.60;0.10;;;10.60;99.90;;;;;;5033014;28;20447;-73
2022/04/19 01:21:08;;;;;;;0.60;0.10;;;10.60;99.90;;;;;;5043121;28;20450;-74
2022/04/19 01:23:39;;;;;;;0.60;0.10;;;10.60;99.90;;;;;;5055129;28;20482;-74
2022/04/19 01:26:07;;;;;;;0.60;0.10;;;10.60;99.90;;;;;;5046679;28;20447;-73
2022/04/19 01:28:35;;;;;;;0.60;0.20;;;10.70;99.90;;;;;;5039279;28;20467;-73
2022/04/19 01:31:04;;;;;;;0.60;0.10;;;10.70;99.90;;;;;;5043685;28;20475;-72
2022/04/19 01:33:32;;;;;;;0.60;0.10;;;10.70;99.90;;;;;;5042656;28;20468;-73
2022/04/19 01:36:00;;;;;;;0.60;0.10;;;10.60;99.90;;;;;;5033576;28;20456;-74
2022/04/19 01:38:28;;;;;;;0.60;0.10;;;10.60;99.90;;;;;;5033417;28;20447;-72
2022/04/19 01:40:57;;;;;;;0.60;0.10;;;10.60;99.90;;;;;;5033212;28;20447;-72
2022/04/19 01:43:25;;;;;;;0.60;0.10;;;10.60;99.90;;;;;;5033162;28;21068;-72
2022/04/19 01:45:54;;;;;;;0.60;0.10;;;10.60;99.90;;;;;;5032122;28;20471;-73
2022/04/19 01:48:22;;;;;;;0.60;0.10;;;10.60;99.90;;;;;;5034788;28;20479;-74
2022/04/19 01:50:50;;;;;;;1.77;1.67;;;10.60;99.90;;;;;;5035282;28;20498;-72
2022/04/19 01:53:18;;;;;;;0.60;0.10;;;10.60;99.90;;;;;;5033138;28;20570;-73
2022/04/19 01:55:46;;;;;;;0.60;0.10;;;10.60;99.90;;;;;;5031383;28;20934;-74
2022/04/19 01:58:17;;;;;;;0.60;0.10;;;10.50;99.90;;;;;;5030627;28;20521;-73
2022/04/19 02:00:45;;;;;;;0.60;0.10;;;10.50;99.90;;;;;;5031391;28;20550;-72
2022/04/19 02:03:12;;;;;;;1.00;0.30;;;10.50;99.90;;;;;;5029646;28;20555;-73
2022/04/19 02:05:40;;;;;;;0.60;0.10;;;10.50;99.90;;;;;;5033083;28;20454;-73
2022/04/19 02:08:08;;;;;;;0.60;0.10;;;10.40;99.90;;;;;;5036490;28;20454;-74
2022/04/19 02:10:36;;;;;;;0.60;0.10;;;10.40;99.90;;;;;;5036246;28;20573;-73
2022/04/19 02:13:04;;;;;;;0.60;0.10;;;10.40;99.90;;;;;;5034445;28;20819;-72
2022/04/19 02:15:34;;;;;;;0.60;0.10;;;10.50;99.90;;;;;;5031139;28;20455;-73
2022/04/19 02:18:02;;;;;;;0.60;0.10;;;10.40;99.90;;;;;;5030937;28;20543;-72
2022/04/19 02:20:30;;;;;;;0.60;0.10;;;10.40;99.90;;;;;;5032576;28;20447;-72
2022/04/19 02:22:58;;;;;;;2.40;1.67;;;10.30;99.90;;;;;;5031329;28;20463;-74
2022/04/19 02:25:26;;;;;;;0.70;0.57;;;10.30;99.90;;;;;;5031097;28;20451;-72
2022/04/19 02:27:54;;;;;;;0.60;0.10;;;;;;;;;;5032053;28;20535;-72
2022/04/19 02:30:22;;;;;;;0.60;0.10;;;10.30;99.90;;;;;;5031353;28;20580;-72
2022/04/19 02:32:52;;;;;;;0.60;0.10;;;10.30;99.90;;;;;;5039318;28;20570;-74
2022/04/19 02:35:21;;;;;;;0.60;0.20;;;10.30;99.90;;;;;;5054168;28;20431;-73
2022/04/19 02:37:49;;;;;;;0.60;0.10;;;10.30;99.90;;;;;;5050981;28;20521;-72
2022/04/19 02:40:18;;;;;;;0.70;0.53;;;10.20;99.90;;;;;;5047957;28;20500;-72
2022/04/19 02:42:47;;;;;;;0.60;0.10;;;10.20;99.90;;;;;;5042957;28;20472;-74
2022/04/19 02:45:15;;;;;;;0.60;0.10;;;10.20;99.90;;;;;;5044206;28;20434;-71
2022/04/19 02:47:43;;;;;;;0.60;0.10;;;10.20;99.90;;;;;;5052220;28;20446;-73
2022/04/19 02:50:12;;;;;;;0.60;0.10;;;10.20;99.90;;;;;;5051915;28;20525;-74
2022/04/19 02:52:40;;;;;;;0.60;0.10;;;10.20;99.90;;;;;;5050766;28;20466;-73
2022/04/19 02:55:09;;;;;;;0.60;0.10;;;10.20;99.90;;;;;;5050836;28;20818;-73
2022/04/19 02:57:36;;;;;;;0.60;0.20;;;10.10;99.90;;;;;;5051154;28;20789;-74
2022/04/19 03:00:05;;;;;;;0.60;0.10;;;10.10;99.90;;;;;;5051701;28;20446;-74
2022/04/19 03:02:33;;;;;;;0.60;0.10;;;10.10;99.90;;;;;;5050721;28;20474;-73
2022/04/19 03:05:01;;;;;;;0.60;0.10;;;10.10;99.90;;;;;;5038693;28;20447;-73
2022/04/19 03:07:30;;;;;;;0.60;0.10;;;10.00;99.90;;;;;;5030721;28;20817;-73
2022/04/19 03:09:58;;;;;;;0.60;0.10;;;10.00;99.90;;;;;;5031001;28;20447;-73
2022/04/19 03:12:27;;;;;;;0.60;0.10;;;9.90;99.90;;;;;;5030767;28;20459;-73
2022/04/19 03:14:55;;;;;;;0.60;0.10;;;9.90;99.90;;;;;;5034457;28;20439;-71
2022/04/19 03:17:23;;;;;;;0.60;0.10;;;9.80;99.90;;;;;;5042336;28;20846;-73
2022/04/19 03:19:51;;;;;;;0.60;0.20;;;9.80;99.90;;;;;;5049487;28;20454;-72
2022/04/19 03:22:19;;;;;;;0.60;0.10;;;9.80;99.90;;;;;;5054434;28;20458;-72
2022/04/19 03:27:42;;;;;;;0.60;0.10;;;9.70;99.90;;;;;;5031656;28;20454;-74
2022/04/19 03:30:14;;;;;;;2.70;2.60;;;9.60;99.90;;;;;;5042511;28;20504;-74
2022/04/19 03:32:44;;;;;;;0.80;0.63;;;9.60;99.90;;;;;;5047903;28;21004;-75
2022/04/19 03:35:12;;;;;;;0.60;0.10;;;9.60;99.90;;;;;;5054306;28;20541;-74
2022/04/19 03:37:40;;;;;;;0.60;0.10;;;9.60;99.90;;;;;;5035891;28;20451;-74
2022/04/19 03:40:11;;;;;;;0.60;0.10;;;9.50;99.90;;;;;;5034401;28;20482;-76
2022/04/19 03:42:40;;;;;;;0.60;0.10;;;9.50;99.90;;;;;;5014604;28;20464;-74
2022/04/19 03:45:09;;;;;;;0.60;0.10;;;9.40;99.90;;;;;;5016010;28;20448;-73
2022/04/19 03:47:37;;;;;;;0.60;0.10;;;9.40;99.90;;;;;;5031524;28;20470;-74
2022/04/19 03:50:06;;;;;;;0.60;0.10;;;9.40;99.90;;;;;;5035869;28;20455;-74
2022/04/19 03:52:34;;;;;;;0.60;0.10;;;9.40;99.90;;;;;;5037716;28;20489;-73
2022/04/19 03:55:02;;;;;;;0.60;0.10;;;9.30;99.90;;;;;;5032850;28;20955;-72
2022/04/19 03:57:31;;;;;;;0.60;0.20;;;9.20;99.90;;;;;;5032694;28;20436;-72
2022/04/19 03:59:59;;;;;;;0.60;0.10;;;9.10;99.90;;;;;;5032915;28;20447;-74
2022/04/19 04:02:27;;;;;;;0.60;0.40;;;;;;;;;;5048375;22;21174;-76
2022/04/19 04:04:55;;;;;;;1.07;0.87;;;9.00;99.90;;;;;;5056073;28;20450;-76
2022/04/19 04:07:27;;;;;;;0.60;0.10;;;9.50;99.90;;;;;;5055097;28;21129;-77
2022/04/19 04:09:55;;;;;;;0.60;0.10;;;8.90;99.90;;;;;;5054969;28;20457;-75
2022/04/19 04:12:23;;;;;;;0.60;0.20;;;8.80;99.90;;;;;;5051822;28;20478;-74
2022/04/19 04:14:52;;;;;;;0.60;0.10;;;8.80;99.90;;;;;;5032376;28;20451;-76
2022/04/19 04:17:20;;;;;;;0.60;0.10;;;8.80;99.90;;;;;;5033060;28;20446;-75
2022/04/19 04:19:50;;;;;;;0.60;0.20;;;8.80;99.90;;;;;;5032500;28;20443;-76
2022/04/19 04:22:20;;;;;;;0.60;0.20;;;8.70;99.90;;;;;;5022337;28;20444;-76
2022/04/19 04:24:47;;;;;;;0.60;0.20;;;8.70;99.90;;;;;;5018710;28;20447;-76
2022/04/19 04:27:16;;;;;;;0.93;0.50;;;8.70;99.90;;;;;;5050188;28;20457;-76
2022/04/19 04:29:44;;;;;;;1.47;1.37;;;8.60;99.90;;;;;;5051730;28;20452;-75
2022/04/19 04:32:13;;;;;;;0.60;0.10;;;;;;;;;;5052690;28;20509;-74
2022/04/19 04:34:41;;;;;;;0.60;0.20;;;8.50;99.90;;;;;;5046743;28;20446;-75
2022/04/19 04:37:09;;;;;;;0.90;0.33;;;8.50;99.90;;;;;;5032798;28;20451;-75
2022/04/19 04:39:37;;;;;;;0.60;0.10;;;8.50;99.90;;;;;;5031473;28;20793;-75
2022/04/19 04:42:05;;;;;;;0.60;0.10;;;8.50;99.90;;;;;;5029344;28;20455;-76
2022/04/19 04:44:33;;;;;;;0.60;0.10;;;8.50;99.90;;;;;;5032347;28;20487;-75
2022/04/19 04:49:48;;;;;;;0.60;0.10;;;8.70;99.90;;;;;;5029836;28;20445;-74
2022/04/19 04:52:18;;;;;;;1.27;0.67;;;8.70;99.90;;;;;;5025913;28;20476;-75
2022/04/19 04:54:46;;;;;;;0.60;0.20;;;8.70;99.90;;;;;;5039671;28;20476;-77
2022/04/19 04:57:13;;;;;;;0.60;0.10;;;8.70;99.90;;;;;;5032260;28;20458;-74
2022/04/19 04:59:41;;;;;;;0.60;0.10;;;8.70;99.90;;;;;;5024598;28;20454;-75
2022/04/19 05:02:09;;;;;;;0.60;0.10;;;8.70;99.90;;;;;;5034269;28;20469;-75
2022/04/19 05:04:37;;;;;;;0.60;0.20;;;8.70;99.90;;;;;;5031913;28;20520;-75
2022/04/19 05:07:06;;;;;;;0.60;0.10;;;8.70;99.90;;;;;;5032158;28;20459;-75
2022/04/19 05:09:34;;;;;;;0.60;0.10;;;8.70;99.90;;;;;;5029128;28;20547;-75
2022/04/19 05:12:02;;;;;;;3.30;1.13;;;8.80;99.90;;;;;;5026052;28;20475;-74
2022/04/19 05:14:30;;;;;;;0.60;0.10;;;8.70;99.90;;;;;;5029337;28;20554;-74
2022/04/19 05:16:58;;;;;;;0.60;0.10;;;8.70;99.90;;;;;;5025684;28;20538;-74
2022/04/19 05:19:26;;;;;;;0.70;0.20;;;8.80;99.90;;;;;;5029554;28;20446;-76
2022/04/19 05:21:54;;;;;;;0.60;0.10;;;8.80;99.90;;;;;;5039985;28;20637;-73
2022/04/19 05:24:23;;;;;;;0.60;0.10;;;8.90;99.90;;;;;;5040512;28;20563;-76
2022/04/19 05:26:51;;;;;;;0.60;0.20;;;8.90;99.90;;;;;;5046185;28;20446;-75
2022/04/19 05:29:19;;;;;;;0.60;0.10;;;9.00;99.90;;;;;;5051832;28;20452;-75
2022/04/19 05:31:46;;;;;;;0.60;0.10;;;9.10;99.90;;;;;;5049211;28;20486;-76
2022/04/19 05:34:14;;;;;;;0.60;0.10;;;9.20;99.90;;;;;;5039786;28;20464;-76
2022/04/19 05:36:42;;;;;;;0.60;0.10;;;9.30;99.90;;;;;;5040319;28;20821;-77
2022/04/19 05:39:10;;;;;;;0.60;0.10;;;9.40;99.90;;;;;;5036679;28;20910;-75
2022/04/19 05:41:40;;;;;;;0.60;0.10;;;9.40;99.90;;;;;;5042572;28;20446;-74
2022/04/19 05:44:09;;;;;;;0.60;0.10;;;9.40;99.90;;;;;;5021158;28;20483;-76
2022/04/19 05:46:37;;;;;;;0.60;0.10;;;9.50;99.90;;;;;;5032751;28;20490;-75
2022/04/19 05:49:05;;;;;;;0.60;0.10;;;9.50;99.90;;;;;;5033704;28;20550;-71
2022/04/19 05:51:34;;;;;;;0.60;0.10;;;9.60;99.90;;;;;;5033608;28;20834;-79
2022/04/19 05:54:02;;;;;;;0.60;0.10;;;7.90;99.90;;;;;;5050749;28;20459;-77
2022/04/19 05:56:33;;;;;;;0.60;0.10;;;10.10;99.90;;;;;;5056835;28;20431;-79
2022/04/19 05:59:02;;;;;;;0.60;0.10;;;10.10;99.90;;;;;;5052165;28;20459;-82
2022/04/19 06:04:51;;;;;;;0.60;0.10;;;10.10;99.90;;;;;;5048125;28;20567;-77
2022/04/19 06:07:04;;;;;;;3.50;3.30;;;10.10;99.90;;;;;;5047979;28;20443;-81
2022/04/19 06:09:31;;;;;;;0.60;0.10;;;10.20;99.90;;;;;;5046190;28;20455;-80
2022/04/19 06:12:00;;;;;;;0.60;0.10;;;10.20;99.90;;;;;;5049552;28;20517;-82
2022/04/19 06:14:30;;;;;;;0.60;0.10;;;10.30;99.90;;;;;;5048379;28;20486;-82
2022/04/19 06:16:57;;;;;;;0.60;0.10;;;10.20;99.90;;;;;;5058631;28;20446;-81
2022/04/19 06:19:27;;;;;;;0.80;0.67;;;10.30;99.90;;;;;;5067358;28;20446;-81
2022/04/19 06:21:55;;;;;;;0.60;0.10;;;10.40;99.90;;;;;;5072534;28;20454;-79
2022/04/19 06:24:23;;;;;;;0.70;0.30;;;10.40;99.90;;;;;;5067998;28;20456;-80
2022/04/19 06:26:51;;;;;;;0.60;0.10;;;10.40;99.90;;;;;;5067333;28;20473;-78
2022/04/19 06:29:19;;;;;;;0.60;0.10;;;10.40;99.90;;;;;;5072792;28;20485;-79
2022/04/19 06:31:48;;;;;;;0.60;0.10;;;10.40;99.90;;;;;;5072225;28;20518;-80
2022/04/19 06:34:17;;;;;;;0.60;0.10;;;10.40;99.90;;;;;;5058812;28;20527;-81
2022/04/19 06:36:45;;;;;;;0.60;0.10;;;10.40;99.90;;;;;;5038561;28;20522;-81
2022/04/19 06:39:13;;;;;;;0.60;0.10;;;10.50;99.90;;;;;;5036037;28;20490;-83
2022/04/19 06:41:42;;;;;;;0.60;0.20;;;10.60;99.90;;;;;;5036123;28;20534;-81
2022/04/19 06:44:10;;;;;;;0.60;0.10;;;10.70;99.90;;;;;;5036064;28;20506;-80
2022/04/19 06:46:38;;;;;;;0.60;0.10;;;10.90;99.90;;;;;;5043835;28;20522;-81
2022/04/19 06:49:07;;;;;;;0.60;0.10;;;10.90;99.90;;;;;;5052395;28;20447;-81
2022/04/19 06:51:35;;;;;;;0.60;0.10;;;11.00;99.90;;;;;;5056437;28;20489;-80
2022/04/19 06:54:03;;;;;;;0.60;0.43;;;11.20;99.90;;;;;;5049346;28;21087;-79
2022/04/19 06:56:31;;;;;;;0.60;0.10;;;11.20;99.90;;;;;;5040341;28;20603;-81
2022/04/19 06:58:59;;;;;;;0.60;0.10;;;11.30;99.90;;;;;;5020666;28;20824;-80
2022/04/19 07:01:35;;;;;;;0.60;0.10;;;11.50;99.90;;;;;;5041887;28;20455;-79
2022/04/19 07:04:03;;;;;;;0.60;0.10;;;11.50;99.90;;;;;;5042902;28;20474;-81
2022/04/19 07:06:32;;;;;;;1.07;0.97;;;11.60;99.90;;;;;;5041370;28;20454;-80
2022/04/19 07:09:00;;;;;;;0.60;0.30;;;11.60;99.90;;;;;;5042961;28;20447;-80
2022/04/19 07:11:28;;;;;;;0.60;0.10;;;11.60;99.90;;;;;;5043141;28;20486;-80
2022/04/19 07:13:57;;;;;;;0.63;0.20;;;11.60;99.90;;;;;;5046329;28;21031;-77
2022/04/19 07:16:25;;;;;;;0.60;0.10;;;11.60;99.90;;;;;;5055887;28;20524;-80
2022/04/19 07:18:53;;;;;;;0.60;0.10;;;11.70;99.90;;;;;;5055365;28;20436;-78
2022/04/19 07:27:09;;;;;;;0.60;0.10;;;12.00;99.90;;;;;;5059640;28;20452;-80
2022/04/19 07:29:37;;;;;;;0.60;0.10;;;12.10;99.90;;;;;;5063794;28;20521;-81
2022/04/19 07:32:06;;;;;;;0.60;0.10;;;12.30;99.90;;;;;;5050184;28;20503;-79
2022/04/19 07:34:34;;;;;;;0.60;0.10;;;12.40;99.90;;;;;;5054036;28;20480;-82
2022/04/19 07:37:02;;;;;;;0.60;0.10;;;12.40;99.90;;;;;;5049079;28;20443;-81
2022/04/19 07:39:32;;;;;;;0.60;0.10;;;12.40;99.90;;;;;;5044527;28;20979;-81
2022/04/19 07:42:00;;;;;;;0.60;0.20;;;;;;;;;;5044971;28;20803;-80
2022/04/19 07:44:29;;;;;;;0.60;0.10;;;12.70;99.90;;;;;;5042461;28;20484;-80
2022/04/19 07:46:57;;;;;;;0.60;0.10;;;12.70;99.90;;;;;;5042503;28;20497;-81
2022/04/19 07:49:25;;;;;;;0.60;0.10;;;12.80;99.90;;;;;;5041178;28;20491;-81
2022/04/19 07:51:54;;;;;;;1.50;1.40;;;12.80;99.90;;;;;;5044285;28;20476;-81
2022/04/19 07:54:22;;;;;;;0.60;0.10;;;13.00;99.90;;;;;;5052264;28;20574;-80
2022/04/19 07:56:51;;;;;;;0.60;0.10;;;13.00;99.90;;;;;;5047287;28;20555;-80
2022/04/19 07:59:19;;;;;;;0.70;0.40;;;13.10;99.90;;;;;;5053795;28;20440;-78
2022/04/19 08:01:47;;;;;;;0.60;0.10;;;13.20;99.90;;;;;;5055569;28;20512;-79
2022/04/19 08:04:15;;;;;;;0.60;0.20;;;13.20;99.90;;;;;;5049373;28;20465;-81
2022/04/19 08:06:43;;;;;;;0.60;0.10;;;13.20;99.90;;;;;;5044541;28;20444;-80
2022/04/19 08:09:10;;;;;;;0.60;0.20;;;13.20;99.90;;;;;;5041947;28;20460;-81
2022/04/19 08:11:38;;;;;;;0.60;0.10;;;13.20;99.90;;;;;;5041656;28;20965;-80
2022/04/19 08:14:07;;;;;;;0.60;0.10;;;13.30;99.90;;;;;;5036986;28;20495;-79
2022/04/19 08:16:35;;;;;;;0.60;0.20;;;13.40;99.90;;;;;;5042588;28;20441;-82
2022/04/19 08:19:03;;;;;;;7.50;1.40;;;13.50;99.90;;;;;;5044921;28;20522;-81
2022/04/19 08:21:31;;;;;;;0.60;0.10;;;13.50;99.90;;;;;;5044544;28;20528;-81
2022/04/19 08:23:59;;;;;;;0.60;0.10;;;13.60;99.90;;;;;;5043697;28;20558;-82
2022/04/19 08:26:27;;;;;;;0.60;0.10;;;13.60;99.90;;;;;;5042676;28;20984;-83
2022/04/19 08:28:55;;;;;;;0.60;0.20;;;13.80;99.90;;;;;;5043879;28;20487;-81
2022/04/19 08:31:26;;;;;;;0.60;0.10;;;13.90;99.90;;;;;;5043238;28;20508;-82
2022/04/19 08:33:54;;;;;;;0.60;0.10;;;13.90;99.90;;;;;;5043631;28;20479;-82
2022/04/19 08:36:22;;;;;;;0.60;0.20;;;14.00;99.90;;;;;;5043138;28;20453;-82
2022/04/19 08:38:50;;;;;;;0.60;0.13;;;14.00;99.90;;;;;;5045969;28;20508;-83
2022/04/19 08:41:19;;;;;;;0.60;0.10;;;14.10;99.90;;;;;;5043821;28;20560;-82
2022/04/19 08:43:47;;;;;;;0.60;0.20;;;14.20;99.90;;;;;;5042416;28;20473;-83
2022/04/19 08:46:15;;;;;;;0.60;0.10;;;14.20;99.90;;;;;;5041109;28;20503;-82
2022/04/19 08:48:45;;;;;;;0.60;0.10;;;14.40;99.90;;;;;;5040953;28;20458;-82
2022/04/19 08:51:14;;;;;;;0.60;0.10;;;14.40;99.90;;;;;;5042651;28;20460;-82
2022/04/19 08:59:15;;;;;;;0.60;0.10;;;;;;;;;;5043229;28;20448;-82
2022/04/19 09:01:44;;;;;;;0.60;0.10;;;;;;;;;;5044702;28;20548;-80
2022/04/19 09:04:13;;;;;;;0.70;0.40;;;14.70;99.90;;;;;;5045646;28;20480;-81
2022/04/19 09:06:52;;;;;;;0.60;0.13;;;14.70;99.90;;;;;;5027538;28;20487;-80
2022/04/19 09:09:23;;;;;;;0.60;0.10;;;14.80;99.90;;;;;;5050729;28;20438;-79
2022/04/19 09:11:52;;;;;;;0.60;0.30;;;14.90;99.90;;;;;;5053869;28;20456;-82
2022/04/19 09:14:22;;;;;;;1.43;0.67;;;15.00;99.90;;;;;;5046082;28;20492;-82
2022/04/19 09:17:03;;;;;;;0.60;0.20;;;15.10;99.90;;;;;;5043293;28;20448;-79
2022/04/19 09:19:33;;;;;;;0.60;0.10;;;15.10;99.90;;;;;;5045368;28;20474;-80
2022/04/19 09:22:01;;;;;;;1.50;1.40;;;15.20;99.90;;;;;;5045993;28;20889;-80
2022/04/19 09:24:30;;;;;;;0.70;0.50;;;15.30;99.90;;;;;;5042773;28;20461;-80
2022/04/19 09:26:58;;;;;;;0.93;0.73;;;15.30;99.90;;;;;;5051168;28;20538;-81
2022/04/19 09:29:28;;;;;;;0.60;0.10;;;15.30;99.90;;;;;;5041501;28;20450;-81
2022/04/19 09:31:58;;;;;;;0.93;0.40;;;15.30;99.90;;;;;;5040606;28;20440;-80
2022/04/19 09:34:29;;;;;;;1.33;0.37;;;15.40;99.90;;;;;;5040487;28;20480;-82
2022/04/19 09:37:13;;;;;;;0.60;0.20;;;15.40;99.90;;;;;;5035027;28;20460;-83
2022/04/19 09:39:44;;;;;;;0.60;0.27;;;15.60;99.90;;;;;;5039148;28;20478;-80
2022/04/19 09:42:14;;;;;;;0.60;0.20;;;15.70;99.90;;;;;;5024088;28;20463;-80
2022/04/19 09:44:43;;;;;;;0.60;0.20;;;15.70;99.90;;;;;;5025211;28;20437;-80
2022/04/19 09:47:13;;;;;;;0.60;0.10;;;15.90;99.90;;;;;;5029784;28;20463;-81
2022/04/19 09:49:46;;;;;;;0.60;0.10;;;16.00;99.90;;;;;;5044085;28;20489;-80
2022/04/19 09:52:33;;;;;;;0.60;0.20;;;16.00;99.90;;;;;;5052740;28;20503;-81
2022/04/19 09:55:01;;;;;;;0.60;0.10;;;16.00;99.90;;;;;;5054227;28;20542;-81
2022/04/19 09:57:32;;;;;;;0.70;0.20;;;16.00;99.90;;;;;;5062120;28;20446;-79
2022/04/19 10:00:01;;;;;;;0.60;0.10;;;16.10;99.90;;;;;;5069825;28;20605;-80
2022/04/19 10:08:14;;;;;;;0.60;0.10;;;16.10;99.90;;;;;;5060872;28;20454;-81
2022/04/19 10:10:42;;;;;;;7.00;6.57;;;16.40;99.90;;;;;;5060854;28;20496;-80
2022/04/19 10:13:12;;;;;;;0.70;0.43;;;;;;;;;;5044107;28;20475;-82
2022/04/19 10:15:40;;;;;;;1.20;0.93;;;;;;;;;;5080954;23;20494;-77
2022/04/19 10:18:10;;;;;;;0.60;0.10;;;16.50;99.90;;;;;;5098056;28;20820;-76
2022/04/19 10:20:40;;;;;;;0.93;0.63;;;16.40;99.90;;;;;;5113518;28;20437;-77
2022/04/19 10:23:11;;;;;;;5.27;1.47;;;16.40;99.90;;;;;;5113749;28;20536;-77
2022/04/19 10:25:43;;;;;;;1.33;1.13;;;16.40;99.90;;;;;;5113730;28;20477;-77
2022/04/19 10:28:12;;;;;;;1.70;1.60;;;;;;;;;;5114748;28;20468;-78
2022/04/19 10:30:48;;;;;;;5.43;0.53;;;;;;;;;;5115124;28;20529;-77
2022/04/19 10:33:48;;;;;;;2.40;0.50;;;16.50;99.90;;;;;;5115486;28;20861;-78
2022/04/19 10:36:18;;;;;;;2.33;1.03;;;16.50;99.90;;;;;;5112898;28;20859;-77
2022/04/19 10:39:22;;;;;;;1.13;0.87;;;16.50;99.90;;;;;;5112033;28;20791;-76
2022/04/19 10:41:53;;;;;;;0.80;0.63;;;16.60;99.90;;;;;;5098871;28;20438;-76
2022/04/19 10:44:26;;;;;;;0.70;0.30;;;16.50;99.90;;;;;;5092470;28;20479;-77
2022/04/19 10:47:11;;;;;;;2.90;2.67;;;16.50;99.90;;;;;;5112069;28;20463;-76
2022/04/19 10:50:06;;;;;;;0.60;0.20;;;16.50;99.90;;;;;;5114134;28;20443;-75
2022/04/19 10:52:48;;;;;;;2.00;0.67;;;16.60;99.90;;;;;;5112473;28;20446;-75
2022/04/19 10:55:26;;;;;;;0.60;0.10;;;16.70;99.90;;;;;;5110998;28;20889;-77
2022/04/19 11:00:58;;;;;;;3.40;1.30;;;16.90;99.90;;;;;;5104293;28;20444;-76
2022/04/19 11:03:49;;;;;;;3.13;2.63;;;16.90;99.90;;;;;;5111500;28;20424;-76
2022/04/19 11:06:36;;;;;;;0.60;0.20;;;17.00;99.90;;;;;;5110966;28;20463;-75
2022/04/19 11:09:09;;;;;;;1.60;0.40;;;17.10;99.90;;;;;;5111765;28;20457;-77
2022/04/19 11:11:49;;;;;;;0.60;0.30;;;17.10;99.90;;;;;;5112787;28;20923;-77
2022/04/19 11:14:47;;;;;;;0.60;0.20;;;17.10;99.90;;;;;;5111960;28;20763;-76
2022/04/19 11:17:21;;;;;;;0.70;0.20;;;17.00;99.90;;;;;;5111662;28;20469;-77
2022/04/19 11:20:14;;;;;;;0.60;0.10;;;17.10;99.90;;;;;;5110759;28;20454;-78
2022/04/19 11:22:46;;;;;;;0.60;0.20;;;17.20;99.90;;;;;;5111921;28;20468;-75
2022/04/19 11:25:14;;;;;;;1.13;1.03;;;17.30;99.90;;;;;;5110475;28;20465;-78
2022/04/19 11:28:18;;;;;;;2.17;2.00;;;17.40;99.90;;;;;;5091619;28;20466;-76
2022/04/19 11:31:02;;;;;;;0.90;0.57;;;17.50;99.90;;;;;;5092448;28;20958;-77
2022/04/19 11:33:33;;;;;;;0.60;0.20;;;17.70;99.90;;;;;;5093675;28;20455;-75
2022/04/19 11:36:02;;;;;;;0.80;0.53;;;17.80;99.90;;;;;;5109835;28;20512;-76
2022/04/19 11:38:32;;;;;;;0.70;0.30;;;17.70;99.90;;;;;;5116114;28;20454;-77
2022/04/19 11:46:44;;;;;;;0.70;0.27;;;17.90;99.90;;;;;;5124471;28;20534;-77
2022/04/19 11:49:25;;;;;;;2.50;0.50;;;17.90;99.90;;;;;;5127340;28;20442;-77
2022/04/19 11:51:55;;;;;;;0.93;0.30;;;17.80;99.90;;;;;;5118619;28;20455;-75
2022/04/19 11:54:24;;;;;;;1.00;0.50;;;17.70;99.90;;;;;;5116506;28;21007;-74
2022/04/19 11:56:53;;;;;;;0.70;0.40;;;17.70;99.90;;;;;;5116441;28;20554;-76
2022/04/19 11:59:30;;;;;;;1.10;0.63;;;17.60;99.90;;;;;;5120130;28;20446;-77
2022/04/19 12:01:59;;;;;;;1.03;0.40;;;17.70;99.90;;;;;;5116852;28;20498;-76
2022/04/19 12:04:28;;;;;;;0.60;0.30;;;17.80;99.90;;;;;;5115416;28;20453;-78
2022/04/19 12:06:58;;;;;;;0.60;0.20;;;17.90;99.90;;;;;;5114941;28;20454;-78
2022/04/19 12:09:27;;;;;;;1.10;0.80;;;17.90;99.90;;;;;;5105562;28;20470;-78
2022/04/19 12:12:02;;;;;;;0.60;0.20;;;18.00;99.90;;;;;;5101572;28;20460;-78
2022/04/19 12:14:32;;;;;;;0.60;0.20;;;18.00;99.90;;;;;;5103702;28;20858;-74
2022/04/19 12:17:02;;;;;;;0.60;0.20;;;17.90;99.90;;;;;;5110709;28;20480;-76
2022/04/19 12:19:35;;;;;;;0.70;0.30;;;17.90;99.90;;;;;;5110190;28;20451;-76
2022/04/19 12:22:14;;;;;;;0.70;0.20;;;17.80;99.90;;;;;;5114900;28;20981;-77
2022/04/19 12:24:46;;;;;;;1.80;0.43;;;17.80;99.90;;;;;;5112494;28;20465;-75
2022/04/19 12:27:14;;;;;;;0.83;0.67;;;18.00;99.90;;;;;;5104679;28;20460;-75
2022/04/19 12:29:59;;;;;;;0.60;0.20;;;18.00;99.90;;;;;;5098868;28;20440;-76
2022/04/19 12:32:29;;;;;;;0.70;0.20;;;18.10;99.90;;;;;;5105886;28;20984;-75
2022/04/19 12:35:07;;;;;;;0.70;0.30;;;18.20;99.90;;;;;;5111483;28;20830;-76
2022/04/19 12:37:35;;;;;;;0.60;0.20;;;18.30;99.90;;;;;;5114236;28;20914;-75
2022/04/19 12:40:04;;;;;;;0.60;0.20;;;18.40;99.90;;;;;;5108722;28;20448;-77
2022/04/19 12:42:49;;;;;;;0.60;0.20;;;18.40;99.90;;;;;;5105827;28;20782;-76
2022/04/19 12:45:18;;;;;;;0.60;0.20;;;18.40;99.90;;;;;;5108909;28;20471;-77
2022/04/19 12:47:47;;;;;;;0.60;0.10;;;18.50;99.90;;;;;;5112026;28;20523;-77
2022/04/19 12:50:17;;;;;;;0.60;0.10;;;18.50;99.90;;;;;;5126596;28;20962;-76
2022/04/19 12:52:45;;;;;;;0.60;0.10;;;18.60;99.90;;;;;;5109656;28;20452;-76
2022/04/19 12:55:13;;;;;;;0.60;0.10;;;18.80;99.90;;;;;;5100607;28;20482;-76
2022/04/19 12:57:45;;;;;;;0.60;0.20;;;18.80;99.90;;;;;;5114249;28;20496;-77
2022/04/19 13:00:14;;;;;;;0.60;0.10;;;18.80;99.90;;;;;;5107802;28;20521;-78
2022/04/19 13:02:43;;;;;;;0.60;0.10;;;18.80;99.90;;;;;;5098199;28;20454;-78
2022/04/19 13:05:11;;;;;;;1.10;0.47;;;18.80;99.90;;;;;;5112385;28;20565;-76
2022/04/19 13:13:13;;;;;;;0.60;0.20;;;;;;;;;;5113898;28;20457;-77
2022/04/19 13:15:43;;;;;;;0.60;0.10;;;18.50;99.90;;;;;;5112978;28;20471;-76
2022/04/19 13:18:12;;;;;;;1.17;0.50;;;18.50;99.90;;;;;;5114095;28;20440;-77
2022/04/19 13:20:40;;;;;;;0.60;0.10;;;18.40;99.90;;;;;;5114399;28;20482;-77
2022/04/19 13:23:08;;;;;;;1.30;1.20;;;18.30;99.90;;;;;;5114311;28;20455;-76
2022/04/19 13:25:37;;;;;;;0.60;0.20;;;18.40;99.90;;;;;;5112612;28;20481;-77
2022/04/19 13:28:05;;;;;;;0.60;0.10;;;18.40;99.90;;;;;;5114060;28;20541;-77
2022/04/19 13:30:33;;;;;;;0.60;0.10;;;18.50;99.90;;;;;;5114751;28;20450;-77
2022/04/19 13:33:03;;;;;;;0.70;0.40;;;18.50;99.90;;;;;;5116477;28;20503;-78
2022/04/19 13:35:32;;;;;;;0.70;0.20;;;18.50;99.90;;;;;;5116865;28;21005;-77
2022/04/19 13:40:45;;;;;;;0.60;0.20;;;18.50;99.90;;;;;;5116918;28;20446;-76
2022/04/19 13:43:14;;;;;;;0.60;0.20;;;18.50;99.90;;;;;;5115093;28;20448;-77
2022/04/19 13:45:42;;;;;;;1.10;0.57;;;18.40;99.90;;;;;;5114473;28;20494;-77
2022/04/19 13:48:10;;;;;;;0.70;0.30;;;18.30;99.90;;;;;;5098820;28;20868;-77
2022/04/19 13:50:39;;;;;;;1.47;1.37;;;18.30;99.90;;;;;;5106636;28;20457;-76